sensor_id;sensor_type;location;lat;lon;timestamp;temperature;humidity
11474;DHT22;5793;52.238;13.438;2023-01-06T00:01:22;3.70;99.90
11474;DHT22;5793;52.238;13.438;2023-01-06T00:03:52;3.80;99.90
11474;DHT22;5793;52.238;13.438;2023-01-06T00:06:21;3.80;99.90
11474;DHT22;5793;52.238;13.438;2023-01-06T00:08:53;3.80;99.90
11474;DHT22;5793;52.238;13.438;2023-01-06T00:11:22;3.80;99.90
11474;DHT22;5793;52.238;13.438;2023-01-06T00:13:50;3.80;99.90
11474;DHT22;5793;52.238;13.438;2023-01-06T00:16:19;3.70;99.90
11474;DHT22;5793;52.238;13.438;2023-01-06T00:18:48;3.70;99.90
11474;DHT22;5793;52.238;13.438;2023-01-06T00:21:16;3.60;99.90
11474;DHT22;5793;52.238;13.438;2023-01-06T00:23:43;3.50;99.90
11474;DHT22;5793;52.238;13.438;2023-01-06T00:26:11;3.50;99.90
11474;DHT22;5793;52.238;13.438;2023-01-06T00:28:39;3.60;99.90
11474;DHT22;5793;52.238;13.438;2023-01-06T00:31:08;3.60;99.90
11474;DHT22;5793;52.238;13.438;2023-01-06T00:33:36;3.60;99.90
11474;DHT22;5793;52.238;13.438;2023-01-06T00:36:06;3.70;99.90
11474;DHT22;5793;52.238;13.438;2023-01-06T00:38:35;3.60;99.90
11474;DHT22;5793;52.238;13.438;2023-01-06T00:41:04;3.50;99.90
11474;DHT22;5793;52.238;13.438;2023-01-06T00:43:52;3.50;99.90
11474;DHT22;5793;52.238;13.438;2023-01-06T00:46:20;3.50;99.90
11474;DHT22;5793;52.238;13.438;2023-01-06T00:48:48;3.50;99.90
11474;DHT22;5793;52.238;13.438;2023-01-06T00:51:32;3.60;99.90
11474;DHT22;5793;52.238;13.438;2023-01-06T00:54:00;3.40;99.90
11474;DHT22;5793;52.238;13.438;2023-01-06T00:56:28;3.30;99.90
11474;DHT22;5793;52.238;13.438;2023-01-06T00:58:56;3.30;99.90
11474;DHT22;5793;52.238;13.438;2023-01-06T01:01:24;3.40;99.90
11474;DHT22;5793;52.238;13.438;2023-01-06T01:03:52;3.40;99.90
11474;DHT22;5793;52.238;13.438;2023-01-06T01:06:19;3.40;99.90
11474;DHT22;5793;52.238;13.438;2023-01-06T01:08:52;3.40;99.90
11474;DHT22;5793;52.238;13.438;2023-01-06T01:11:20;3.50;99.90
11474;DHT22;5793;52.238;13.438;2023-01-06T01:14:02;3.60;99.90
11474;DHT22;5793;52.238;13.438;2023-01-06T01:16:30;3.50;99.90
11474;DHT22;5793;52.238;13.438;2023-01-06T01:18:59;3.50;99.90
11474;DHT22;5793;52.238;13.438;2023-01-06T01:21:26;3.50;99.90
11474;DHT22;5793;52.238;13.438;2023-01-06T01:23:55;3.50;99.90
11474;DHT22;5793;52.238;13.438;2023-01-06T01:26:23;3.50;99.90
11474;DHT22;5793;52.238;13.438;2023-01-06T01:28:51;3.50;99.90
11474;DHT22;5793;52.238;13.438;2023-01-06T01:31:19;3.60;99.90
11474;DHT22;5793;52.238;13.438;2023-01-06T01:33:47;3.60;99.90
11474;DHT22;5793;52.238;13.438;2023-01-06T01:36:16;3.80;99.90
11474;DHT22;5793;52.238;13.438;2023-01-06T01:38:44;3.80;99.90
11474;DHT22;5793;52.238;13.438;2023-01-06T01:41:15;3.90;99.90
11474;DHT22;5793;52.238;13.438;2023-01-06T01:43:45;3.90;99.90
11474;DHT22;5793;52.238;13.438;2023-01-06T01:46:17;3.90;99.90
11474;DHT22;5793;52.238;13.438;2023-01-06T01:48:46;3.90;99.90
11474;DHT22;5793;52.238;13.438;2023-01-06T01:51:18;3.90;99.90
11474;DHT22;5793;52.238;13.438;2023-01-06T01:53:52;3.90;99.90
11474;DHT22;5793;52.238;13.438;2023-01-06T01:56:31;4.00;99.90
11474;DHT22;5793;52.238;13.438;2023-01-06T01:59:04;4.10;99.90
11474;DHT22;5793;52.238;13.438;2023-01-06T02:01:32;4.10;99.90
11474;DHT22;5793;52.238;13.438;2023-01-06T02:04:01;4.20;99.90
11474;DHT22;5793;52.238;13.438;2023-01-06T02:06:29;4.30;99.90
11474;DHT22;5793;52.238;13.438;2023-01-06T02:09:00;4.20;99.90
11474;DHT22;5793;52.238;13.438;2023-01-06T02:11:33;4.20;99.90
11474;DHT22;5793;52.238;13.438;2023-01-06T02:14:09;4.20;99.90
11474;DHT22;5793;52.238;13.438;2023-01-06T02:16:45;4.10;99.90
11474;DHT22;5793;52.238;13.438;2023-01-06T02:19:32;4.10;99.90
11474;DHT22;5793;52.238;13.438;2023-01-06T02:22:21;4.10;99.90
11474;DHT22;5793;52.238;13.438;2023-01-06T02:25:30;4.10;99.90
11474;DHT22;5793;52.238;13.438;2023-01-06T02:28:42;4.10;99.90
11474;DHT22;5793;52.238;13.438;2023-01-06T02:31:43;4.10;99.90
11474;DHT22;5793;52.238;13.438;2023-01-06T02:34:21;4.10;99.90
11474;DHT22;5793;52.238;13.438;2023-01-06T02:36:59;4.10;99.90
11474;DHT22;5793;52.238;13.438;2023-01-06T02:39:33;4.10;99.90
11474;DHT22;5793;52.238;13.438;2023-01-06T02:42:13;4.10;99.90
11474;DHT22;5793;52.238;13.438;2023-01-06T02:44:47;4.10;99.90
11474;DHT22;5793;52.238;13.438;2023-01-06T02:47:29;4.10;99.90
11474;DHT22;5793;52.238;13.438;2023-01-06T02:50:05;4.20;99.90
11474;DHT22;5793;52.238;13.438;2023-01-06T02:52:40;4.30;99.90
11474;DHT22;5793;52.238;13.438;2023-01-06T02:55:12;4.30;99.90
11474;DHT22;5793;52.238;13.438;2023-01-06T02:57:44;4.30;99.90
11474;DHT22;5793;52.238;13.438;2023-01-06T03:00:19;4.30;99.90
11474;DHT22;5793;52.238;13.438;2023-01-06T03:02:53;4.40;99.90
11474;DHT22;5793;52.238;13.438;2023-01-06T03:05:24;4.50;99.90
11474;DHT22;5793;52.238;13.438;2023-01-06T03:07:53;4.50;99.90
11474;DHT22;5793;52.238;13.438;2023-01-06T03:10:22;4.60;99.90
11474;DHT22;5793;52.238;13.438;2023-01-06T03:12:58;4.50;99.90
11474;DHT22;5793;52.238;13.438;2023-01-06T03:15:26;4.60;99.90
11474;DHT22;5793;52.238;13.438;2023-01-06T03:17:56;4.70;99.90
11474;DHT22;5793;52.238;13.438;2023-01-06T03:20:24;4.80;99.90
11474;DHT22;5793;52.238;13.438;2023-01-06T03:22:51;4.80;99.90
11474;DHT22;5793;52.238;13.438;2023-01-06T03:25:20;4.90;99.90
11474;DHT22;5793;52.238;13.438;2023-01-06T03:27:48;4.80;99.90
11474;DHT22;5793;52.238;13.438;2023-01-06T03:30:16;4.80;99.90
11474;DHT22;5793;52.238;13.438;2023-01-06T03:32:50;4.90;99.90
11474;DHT22;5793;52.238;13.438;2023-01-06T03:35:38;4.90;99.90
11474;DHT22;5793;52.238;13.438;2023-01-06T03:38:13;5.00;99.90
11474;DHT22;5793;52.238;13.438;2023-01-06T03:40:52;5.00;99.90
11474;DHT22;5793;52.238;13.438;2023-01-06T03:43:24;5.00;99.90
11474;DHT22;5793;52.238;13.438;2023-01-06T03:46:04;5.10;99.90
11474;DHT22;5793;52.238;13.438;2023-01-06T03:48:44;5.10;99.90
11474;DHT22;5793;52.238;13.438;2023-01-06T03:51:29;5.20;99.90
11474;DHT22;5793;52.238;13.438;2023-01-06T03:54:04;5.20;99.90
11474;DHT22;5793;52.238;13.438;2023-01-06T03:56:37;5.20;99.90
11474;DHT22;5793;52.238;13.438;2023-01-06T03:59:10;5.30;99.90
11474;DHT22;5793;52.238;13.438;2023-01-06T04:01:39;5.30;99.90
11474;DHT22;5793;52.238;13.438;2023-01-06T04:04:09;5.30;99.90
11474;DHT22;5793;52.238;13.438;2023-01-06T04:06:38;5.30;99.90
11474;DHT22;5793;52.238;13.438;2023-01-06T04:09:06;5.30;99.90
11474;DHT22;5793;52.238;13.438;2023-01-06T04:11:33;5.40;99.90
11474;DHT22;5793;52.238;13.438;2023-01-06T04:14:19;5.40;99.90
11474;DHT22;5793;52.238;13.438;2023-01-06T04:16:47;5.50;99.90
11474;DHT22;5793;52.238;13.438;2023-01-06T04:19:15;5.50;99.90
11474;DHT22;5793;52.238;13.438;2023-01-06T04:21:44;5.60;99.90
11474;DHT22;5793;52.238;13.438;2023-01-06T04:24:12;5.60;99.90
11474;DHT22;5793;52.238;13.438;2023-01-06T04:26:39;5.60;99.90
11474;DHT22;5793;52.238;13.438;2023-01-06T04:29:07;5.70;99.90
11474;DHT22;5793;52.238;13.438;2023-01-06T04:31:35;5.70;99.90
11474;DHT22;5793;52.238;13.438;2023-01-06T04:34:03;5.70;99.90
11474;DHT22;5793;52.238;13.438;2023-01-06T04:36:30;5.60;99.90
11474;DHT22;5793;52.238;13.438;2023-01-06T04:38:59;5.60;99.90
11474;DHT22;5793;52.238;13.438;2023-01-06T04:41:27;5.60;99.90
11474;DHT22;5793;52.238;13.438;2023-01-06T04:43:57;5.60;99.90
11474;DHT22;5793;52.238;13.438;2023-01-06T04:46:25;5.60;99.90
11474;DHT22;5793;52.238;13.438;2023-01-06T04:48:53;5.60;99.90
11474;DHT22;5793;52.238;13.438;2023-01-06T04:51:20;5.60;99.90
11474;DHT22;5793;52.238;13.438;2023-01-06T04:53:48;5.70;99.90
11474;DHT22;5793;52.238;13.438;2023-01-06T04:56:17;5.70;99.90
11474;DHT22;5793;52.238;13.438;2023-01-06T04:58:45;5.70;99.90
11474;DHT22;5793;52.238;13.438;2023-01-06T05:01:13;5.70;99.90
11474;DHT22;5793;52.238;13.438;2023-01-06T05:03:41;5.70;99.90
11474;DHT22;5793;52.238;13.438;2023-01-06T05:06:10;5.70;99.90
11474;DHT22;5793;52.238;13.438;2023-01-06T05:08:39;5.80;99.90
11474;DHT22;5793;52.238;13.438;2023-01-06T05:11:09;5.70;99.90
11474;DHT22;5793;52.238;13.438;2023-01-06T05:13:39;5.80;99.90
11474;DHT22;5793;52.238;13.438;2023-01-06T05:16:08;5.70;99.90
11474;DHT22;5793;52.238;13.438;2023-01-06T05:18:37;5.70;99.90
11474;DHT22;5793;52.238;13.438;2023-01-06T05:21:05;5.70;99.90
11474;DHT22;5793;52.238;13.438;2023-01-06T05:23:32;5.60;99.90
11474;DHT22;5793;52.238;13.438;2023-01-06T05:26:00;5.60;99.90
11474;DHT22;5793;52.238;13.438;2023-01-06T05:28:29;5.70;99.90
11474;DHT22;5793;52.238;13.438;2023-01-06T05:31:01;5.80;99.90
11474;DHT22;5793;52.238;13.438;2023-01-06T05:33:30;5.80;99.90
11474;DHT22;5793;52.238;13.438;2023-01-06T05:35:58;5.70;99.90
11474;DHT22;5793;52.238;13.438;2023-01-06T05:38:26;5.70;99.90
11474;DHT22;5793;52.238;13.438;2023-01-06T05:40:54;5.70;99.90
11474;DHT22;5793;52.238;13.438;2023-01-06T05:43:23;5.70;99.90
11474;DHT22;5793;52.238;13.438;2023-01-06T05:45:51;5.80;99.90
11474;DHT22;5793;52.238;13.438;2023-01-06T05:48:23;5.70;99.90
11474;DHT22;5793;52.238;13.438;2023-01-06T05:50:51;5.80;99.90
11474;DHT22;5793;52.238;13.438;2023-01-06T05:53:19;5.80;99.90
11474;DHT22;5793;52.238;13.438;2023-01-06T05:55:46;5.80;99.90
11474;DHT22;5793;52.238;13.438;2023-01-06T05:58:14;5.90;99.90
11474;DHT22;5793;52.238;13.438;2023-01-06T06:00:42;5.90;99.90
11474;DHT22;5793;52.238;13.438;2023-01-06T06:03:09;5.90;99.90
11474;DHT22;5793;52.238;13.438;2023-01-06T06:05:38;5.90;99.90
11474;DHT22;5793;52.238;13.438;2023-01-06T06:08:06;5.90;99.90
11474;DHT22;5793;52.238;13.438;2023-01-06T06:10:34;6.00;99.90
11474;DHT22;5793;52.238;13.438;2023-01-06T06:13:02;6.00;99.90
11474;DHT22;5793;52.238;13.438;2023-01-06T06:15:30;6.10;99.90
11474;DHT22;5793;52.238;13.438;2023-01-06T06:17:59;6.10;99.90
11474;DHT22;5793;52.238;13.438;2023-01-06T06:20:27;6.00;99.90
11474;DHT22;5793;52.238;13.438;2023-01-06T06:22:56;6.00;99.90
11474;DHT22;5793;52.238;13.438;2023-01-06T06:25:24;6.00;99.90
11474;DHT22;5793;52.238;13.438;2023-01-06T06:27:56;5.90;99.90
11474;DHT22;5793;52.238;13.438;2023-01-06T06:30:24;5.90;99.90
11474;DHT22;5793;52.238;13.438;2023-01-06T06:32:52;5.90;99.90
11474;DHT22;5793;52.238;13.438;2023-01-06T06:35:19;6.00;99.90
11474;DHT22;5793;52.238;13.438;2023-01-06T06:37:47;6.00;99.90
11474;DHT22;5793;52.238;13.438;2023-01-06T06:40:16;5.90;99.90
11474;DHT22;5793;52.238;13.438;2023-01-06T06:42:50;5.90;99.90
11474;DHT22;5793;52.238;13.438;2023-01-06T06:45:17;5.90;99.90
11474;DHT22;5793;52.238;13.438;2023-01-06T06:47:45;5.90;99.90
11474;DHT22;5793;52.238;13.438;2023-01-06T06:50:13;6.00;99.90
11474;DHT22;5793;52.238;13.438;2023-01-06T06:52:41;5.90;99.90
11474;DHT22;5793;52.238;13.438;2023-01-06T06:55:09;5.90;99.90
11474;DHT22;5793;52.238;13.438;2023-01-06T06:57:38;5.90;99.90
11474;DHT22;5793;52.238;13.438;2023-01-06T07:00:07;5.90;99.90
11474;DHT22;5793;52.238;13.438;2023-01-06T07:02:35;6.00;99.90
11474;DHT22;5793;52.238;13.438;2023-01-06T07:05:03;6.00;99.90
11474;DHT22;5793;52.238;13.438;2023-01-06T07:07:31;6.10;99.90
11474;DHT22;5793;52.238;13.438;2023-01-06T07:09:59;6.00;99.90
11474;DHT22;5793;52.238;13.438;2023-01-06T07:12:26;6.10;99.90
11474;DHT22;5793;52.238;13.438;2023-01-06T07:14:55;6.00;99.90
11474;DHT22;5793;52.238;13.438;2023-01-06T07:17:25;6.00;99.90
11474;DHT22;5793;52.238;13.438;2023-01-06T07:19:53;6.00;99.90
11474;DHT22;5793;52.238;13.438;2023-01-06T07:22:21;6.10;99.90
11474;DHT22;5793;52.238;13.438;2023-01-06T07:24:49;6.10;99.90
11474;DHT22;5793;52.238;13.438;2023-01-06T07:27:17;6.20;99.90
11474;DHT22;5793;52.238;13.438;2023-01-06T07:29:44;6.20;99.90
11474;DHT22;5793;52.238;13.438;2023-01-06T07:32:14;6.10;99.90
11474;DHT22;5793;52.238;13.438;2023-01-06T07:34:41;6.10;99.90
11474;DHT22;5793;52.238;13.438;2023-01-06T07:37:09;6.10;99.90
11474;DHT22;5793;52.238;13.438;2023-01-06T07:39:37;6.20;99.90
11474;DHT22;5793;52.238;13.438;2023-01-06T07:42:07;6.20;99.90
11474;DHT22;5793;52.238;13.438;2023-01-06T07:44:35;6.30;99.90
11474;DHT22;5793;52.238;13.438;2023-01-06T07:47:03;6.20;99.90
11474;DHT22;5793;52.238;13.438;2023-01-06T07:49:33;6.20;99.90
11474;DHT22;5793;52.238;13.438;2023-01-06T07:52:01;6.20;99.90
11474;DHT22;5793;52.238;13.438;2023-01-06T07:54:29;6.20;99.90
11474;DHT22;5793;52.238;13.438;2023-01-06T07:56:56;6.20;99.90
11474;DHT22;5793;52.238;13.438;2023-01-06T07:59:24;6.20;99.90
11474;DHT22;5793;52.238;13.438;2023-01-06T08:01:52;6.30;99.90
11474;DHT22;5793;52.238;13.438;2023-01-06T08:04:20;6.30;99.90
11474;DHT22;5793;52.238;13.438;2023-01-06T08:06:49;6.20;99.90
11474;DHT22;5793;52.238;13.438;2023-01-06T08:09:17;6.30;99.90
11474;DHT22;5793;52.238;13.438;2023-01-06T08:11:45;6.30;99.90
11474;DHT22;5793;52.238;13.438;2023-01-06T08:14:12;6.40;99.90
11474;DHT22;5793;52.238;13.438;2023-01-06T08:16:40;6.40;99.90
11474;DHT22;5793;52.238;13.438;2023-01-06T08:19:08;6.40;99.90
11474;DHT22;5793;52.238;13.438;2023-01-06T08:21:36;6.50;99.90
11474;DHT22;5793;52.238;13.438;2023-01-06T08:24:06;6.50;99.90
11474;DHT22;5793;52.238;13.438;2023-01-06T08:26:34;6.50;99.90
11474;DHT22;5793;52.238;13.438;2023-01-06T08:29:02;6.50;99.90
11474;DHT22;5793;52.238;13.438;2023-01-06T08:31:29;6.60;99.90
11474;DHT22;5793;52.238;13.438;2023-01-06T08:33:57;6.60;99.90
11474;DHT22;5793;52.238;13.438;2023-01-06T08:36:26;6.70;99.90
11474;DHT22;5793;52.238;13.438;2023-01-06T08:38:53;6.70;99.90
11474;DHT22;5793;52.238;13.438;2023-01-06T08:41:23;6.60;99.90
11474;DHT22;5793;52.238;13.438;2023-01-06T08:43:51;6.70;99.90
11474;DHT22;5793;52.238;13.438;2023-01-06T08:46:19;6.70;99.90
11474;DHT22;5793;52.238;13.438;2023-01-06T08:48:47;6.80;99.90
11474;DHT22;5793;52.238;13.438;2023-01-06T08:51:17;6.90;99.90
11474;DHT22;5793;52.238;13.438;2023-01-06T08:53:46;6.90;99.90
11474;DHT22;5793;52.238;13.438;2023-01-06T08:56:16;6.90;99.90
11474;DHT22;5793;52.238;13.438;2023-01-06T08:58:50;6.90;99.90
11474;DHT22;5793;52.238;13.438;2023-01-06T09:01:20;6.90;99.90
11474;DHT22;5793;52.238;13.438;2023-01-06T09:03:48;6.90;99.90
11474;DHT22;5793;52.238;13.438;2023-01-06T09:06:17;7.00;99.90
11474;DHT22;5793;52.238;13.438;2023-01-06T09:08:45;7.10;99.90
11474;DHT22;5793;52.238;13.438;2023-01-06T09:11:15;7.20;99.90
11474;DHT22;5793;52.238;13.438;2023-01-06T09:13:44;7.20;99.90
11474;DHT22;5793;52.238;13.438;2023-01-06T09:16:13;7.20;99.90
11474;DHT22;5793;52.238;13.438;2023-01-06T09:18:40;7.20;99.90
11474;DHT22;5793;52.238;13.438;2023-01-06T09:21:15;7.20;99.90
11474;DHT22;5793;52.238;13.438;2023-01-06T09:23:43;7.30;99.90
11474;DHT22;5793;52.238;13.438;2023-01-06T09:26:11;7.30;99.90
11474;DHT22;5793;52.238;13.438;2023-01-06T09:28:39;7.40;99.90
11474;DHT22;5793;52.238;13.438;2023-01-06T09:31:09;7.40;99.90
11474;DHT22;5793;52.238;13.438;2023-01-06T09:33:37;7.40;99.90
11474;DHT22;5793;52.238;13.438;2023-01-06T09:36:06;7.40;99.90
11474;DHT22;5793;52.238;13.438;2023-01-06T09:38:34;7.40;99.90
11474;DHT22;5793;52.238;13.438;2023-01-06T09:41:13;7.40;99.90
11474;DHT22;5793;52.238;13.438;2023-01-06T09:43:49;7.50;99.90
11474;DHT22;5793;52.238;13.438;2023-01-06T09:46:21;7.60;99.90
11474;DHT22;5793;52.238;13.438;2023-01-06T09:48:55;7.60;99.90
11474;DHT22;5793;52.238;13.438;2023-01-06T09:51:25;7.70;99.90
11474;DHT22;5793;52.238;13.438;2023-01-06T09:53:57;7.80;99.90
11474;DHT22;5793;52.238;13.438;2023-01-06T09:56:26;7.80;99.90
11474;DHT22;5793;52.238;13.438;2023-01-06T09:59:02;7.90;99.90
11474;DHT22;5793;52.238;13.438;2023-01-06T10:01:37;7.90;99.90
11474;DHT22;5793;52.238;13.438;2023-01-06T10:04:09;8.00;99.90
11474;DHT22;5793;52.238;13.438;2023-01-06T10:06:42;8.10;99.90
11474;DHT22;5793;52.238;13.438;2023-01-06T10:09:20;8.10;99.90
11474;DHT22;5793;52.238;13.438;2023-01-06T10:12:01;8.10;99.90
11474;DHT22;5793;52.238;13.438;2023-01-06T10:14:39;8.10;99.90
11474;DHT22;5793;52.238;13.438;2023-01-06T10:17:24;8.20;99.90
11474;DHT22;5793;52.238;13.438;2023-01-06T10:20:04;8.20;99.90
11474;DHT22;5793;52.238;13.438;2023-01-06T10:22:39;8.30;99.90
11474;DHT22;5793;52.238;13.438;2023-01-06T10:25:14;8.40;99.90
11474;DHT22;5793;52.238;13.438;2023-01-06T10:27:48;8.60;99.90
11474;DHT22;5793;52.238;13.438;2023-01-06T10:30:19;8.60;99.90
11474;DHT22;5793;52.238;13.438;2023-01-06T10:32:49;8.80;99.90
11474;DHT22;5793;52.238;13.438;2023-01-06T10:35:20;8.80;99.90
11474;DHT22;5793;52.238;13.438;2023-01-06T10:37:50;8.80;99.90
11474;DHT22;5793;52.238;13.438;2023-01-06T10:40:21;8.90;99.90
11474;DHT22;5793;52.238;13.438;2023-01-06T10:42:50;8.90;99.90
11474;DHT22;5793;52.238;13.438;2023-01-06T10:45:25;8.90;99.90
11474;DHT22;5793;52.238;13.438;2023-01-06T10:47:55;9.00;99.90
11474;DHT22;5793;52.238;13.438;2023-01-06T10:50:23;9.10;99.90
11474;DHT22;5793;52.238;13.438;2023-01-06T10:52:52;9.20;99.90
11474;DHT22;5793;52.238;13.438;2023-01-06T10:55:31;9.20;99.90
11474;DHT22;5793;52.238;13.438;2023-01-06T10:58:09;9.40;99.90
11474;DHT22;5793;52.238;13.438;2023-01-06T11:00:53;9.50;99.90
11474;DHT22;5793;52.238;13.438;2023-01-06T11:03:22;9.60;99.90
11474;DHT22;5793;52.238;13.438;2023-01-06T11:06:03;9.70;99.90
11474;DHT22;5793;52.238;13.438;2023-01-06T11:08:33;9.70;99.90
11474;DHT22;5793;52.238;13.438;2023-01-06T11:11:02;9.90;99.90
11474;DHT22;5793;52.238;13.438;2023-01-06T11:13:50;10.10;99.90
11474;DHT22;5793;52.238;13.438;2023-01-06T11:16:23;10.20;99.90
11474;DHT22;5793;52.238;13.438;2023-01-06T11:18:54;10.20;99.90
11474;DHT22;5793;52.238;13.438;2023-01-06T11:21:36;10.10;99.90
11474;DHT22;5793;52.238;13.438;2023-01-06T11:24:16;10.10;99.90
11474;DHT22;5793;52.238;13.438;2023-01-06T11:26:45;10.00;99.90
11474;DHT22;5793;52.238;13.438;2023-01-06T11:29:21;10.00;99.90
11474;DHT22;5793;52.238;13.438;2023-01-06T11:31:50;9.90;99.90
11474;DHT22;5793;52.238;13.438;2023-01-06T11:34:22;9.90;99.90
11474;DHT22;5793;52.238;13.438;2023-01-06T11:36:51;9.90;99.90
11474;DHT22;5793;52.238;13.438;2023-01-06T11:39:24;9.90;99.90
11474;DHT22;5793;52.238;13.438;2023-01-06T11:41:54;9.80;99.90
11474;DHT22;5793;52.238;13.438;2023-01-06T11:44:29;9.80;99.90
11474;DHT22;5793;52.238;13.438;2023-01-06T11:46:58;9.70;99.90
11474;DHT22;5793;52.238;13.438;2023-01-06T11:49:31;9.70;99.90
11474;DHT22;5793;52.238;13.438;2023-01-06T11:52:03;9.70;99.90
11474;DHT22;5793;52.238;13.438;2023-01-06T11:54:35;9.70;99.90
11474;DHT22;5793;52.238;13.438;2023-01-06T11:57:19;9.70;99.90
11474;DHT22;5793;52.238;13.438;2023-01-06T12:00:18;9.70;99.90
11474;DHT22;5793;52.238;13.438;2023-01-06T12:02:49;9.70;99.90
11474;DHT22;5793;52.238;13.438;2023-01-06T12:05:26;9.80;99.90
11474;DHT22;5793;52.238;13.438;2023-01-06T12:07:56;9.80;99.90
11474;DHT22;5793;52.238;13.438;2023-01-06T12:10:28;9.80;99.90
11474;DHT22;5793;52.238;13.438;2023-01-06T12:12:57;9.80;99.90
11474;DHT22;5793;52.238;13.438;2023-01-06T12:15:28;9.80;99.90
11474;DHT22;5793;52.238;13.438;2023-01-06T12:18:00;9.80;99.90
11474;DHT22;5793;52.238;13.438;2023-01-06T12:20:32;9.80;99.90
11474;DHT22;5793;52.238;13.438;2023-01-06T12:23:04;9.90;99.90
11474;DHT22;5793;52.238;13.438;2023-01-06T12:25:36;9.90;99.90
11474;DHT22;5793;52.238;13.438;2023-01-06T12:28:06;9.90;99.90
11474;DHT22;5793;52.238;13.438;2023-01-06T12:30:39;9.90;99.90
11474;DHT22;5793;52.238;13.438;2023-01-06T12:33:13;9.90;99.90
11474;DHT22;5793;52.238;13.438;2023-01-06T12:35:46;9.90;99.90
11474;DHT22;5793;52.238;13.438;2023-01-06T12:38:28;9.90;99.90
11474;DHT22;5793;52.238;13.438;2023-01-06T12:41:02;9.90;99.90
11474;DHT22;5793;52.238;13.438;2023-01-06T12:43:36;10.00;99.90
11474;DHT22;5793;52.238;13.438;2023-01-06T12:46:10;9.90;99.90
11474;DHT22;5793;52.238;13.438;2023-01-06T12:48:44;10.00;99.90
11474;DHT22;5793;52.238;13.438;2023-01-06T12:51:19;9.90;99.90
11474;DHT22;5793;52.238;13.438;2023-01-06T12:53:55;10.00;99.90
11474;DHT22;5793;52.238;13.438;2023-01-06T12:56:35;10.00;99.90
11474;DHT22;5793;52.238;13.438;2023-01-06T12:59:14;10.10;99.90
11474;DHT22;5793;52.238;13.438;2023-01-06T13:01:46;10.10;99.90
11474;DHT22;5793;52.238;13.438;2023-01-06T13:04:46;10.10;99.90
11474;DHT22;5793;52.238;13.438;2023-01-06T13:07:33;10.20;99.90
11474;DHT22;5793;52.238;13.438;2023-01-06T13:10:16;10.20;99.90
11474;DHT22;5793;52.238;13.438;2023-01-06T13:12:55;10.20;99.90
11474;DHT22;5793;52.238;13.438;2023-01-06T13:15:28;10.20;99.90
11474;DHT22;5793;52.238;13.438;2023-01-06T13:18:07;10.20;99.90
11474;DHT22;5793;52.238;13.438;2023-01-06T13:20:41;10.30;99.90
11474;DHT22;5793;52.238;13.438;2023-01-06T13:23:32;10.30;99.90
11474;DHT22;5793;52.238;13.438;2023-01-06T13:26:36;10.30;99.90
11474;DHT22;5793;52.238;13.438;2023-01-06T13:29:16;10.30;99.90
11474;DHT22;5793;52.238;13.438;2023-01-06T13:32:10;10.30;99.90
11474;DHT22;5793;52.238;13.438;2023-01-06T13:34:53;10.30;99.90
11474;DHT22;5793;52.238;13.438;2023-01-06T13:37:32;10.30;99.90
11474;DHT22;5793;52.238;13.438;2023-01-06T13:40:07;10.30;99.90
11474;DHT22;5793;52.238;13.438;2023-01-06T13:42:39;10.40;99.90
11474;DHT22;5793;52.238;13.438;2023-01-06T13:45:14;10.40;99.90
11474;DHT22;5793;52.238;13.438;2023-01-06T13:47:44;10.40;99.90
11474;DHT22;5793;52.238;13.438;2023-01-06T13:50:16;10.30;99.90
11474;DHT22;5793;52.238;13.438;2023-01-06T13:52:45;10.30;99.90
11474;DHT22;5793;52.238;13.438;2023-01-06T13:55:27;10.40;99.90
11474;DHT22;5793;52.238;13.438;2023-01-06T13:57:56;10.40;99.90
11474;DHT22;5793;52.238;13.438;2023-01-06T14:00:26;10.40;99.90
11474;DHT22;5793;52.238;13.438;2023-01-06T14:03:22;10.50;99.90
11474;DHT22;5793;52.238;13.438;2023-01-06T14:05:55;10.50;99.90
11474;DHT22;5793;52.238;13.438;2023-01-06T14:08:26;10.50;99.90
11474;DHT22;5793;52.238;13.438;2023-01-06T14:10:59;10.40;99.90
11474;DHT22;5793;52.238;13.438;2023-01-06T14:13:30;10.40;99.90
11474;DHT22;5793;52.238;13.438;2023-01-06T14:16:02;10.40;99.90
11474;DHT22;5793;52.238;13.438;2023-01-06T14:18:37;10.30;99.90
11474;DHT22;5793;52.238;13.438;2023-01-06T14:21:15;10.30;99.90
11474;DHT22;5793;52.238;13.438;2023-01-06T14:23:56;10.30;99.90
11474;DHT22;5793;52.238;13.438;2023-01-06T14:26:55;10.40;99.90
11474;DHT22;5793;52.238;13.438;2023-01-06T14:33:01;10.30;99.90
11474;DHT22;5793;52.238;13.438;2023-01-06T14:35:32;10.30;99.90
11474;DHT22;5793;52.238;13.438;2023-01-06T14:38:02;10.30;99.90
11474;DHT22;5793;52.238;13.438;2023-01-06T14:40:33;10.30;99.90
11474;DHT22;5793;52.238;13.438;2023-01-06T14:43:25;10.30;99.90
11474;DHT22;5793;52.238;13.438;2023-01-06T14:45:55;10.30;99.90
11474;DHT22;5793;52.238;13.438;2023-01-06T14:48:26;10.20;99.90
11474;DHT22;5793;52.238;13.438;2023-01-06T14:50:55;10.30;99.90
11474;DHT22;5793;52.238;13.438;2023-01-06T14:53:27;10.20;99.90
11474;DHT22;5793;52.238;13.438;2023-01-06T14:55:56;10.20;99.90
11474;DHT22;5793;52.238;13.438;2023-01-06T14:58:31;10.20;99.90
11474;DHT22;5793;52.238;13.438;2023-01-06T15:00:59;10.10;99.90
11474;DHT22;5793;52.238;13.438;2023-01-06T15:03:30;10.20;99.90
11474;DHT22;5793;52.238;13.438;2023-01-06T15:06:09;10.10;99.90
11474;DHT22;5793;52.238;13.438;2023-01-06T15:08:38;10.10;99.90
11474;DHT22;5793;52.238;13.438;2023-01-06T15:11:20;10.10;99.90
11474;DHT22;5793;52.238;13.438;2023-01-06T15:13:50;10.00;99.90
11474;DHT22;5793;52.238;13.438;2023-01-06T15:16:23;9.90;99.90
11474;DHT22;5793;52.238;13.438;2023-01-06T15:18:54;9.80;99.90
11474;DHT22;5793;52.238;13.438;2023-01-06T15:21:25;9.70;99.90
11474;DHT22;5793;52.238;13.438;2023-01-06T15:23:53;9.70;99.90
11474;DHT22;5793;52.238;13.438;2023-01-06T15:26:23;9.60;99.90
11474;DHT22;5793;52.238;13.438;2023-01-06T15:28:58;9.50;99.90
11474;DHT22;5793;52.238;13.438;2023-01-06T15:31:30;9.50;99.90
11474;DHT22;5793;52.238;13.438;2023-01-06T15:33:58;9.40;99.90
11474;DHT22;5793;52.238;13.438;2023-01-06T15:36:28;9.40;99.90
11474;DHT22;5793;52.238;13.438;2023-01-06T15:39:00;9.40;99.90
11474;DHT22;5793;52.238;13.438;2023-01-06T15:41:29;9.40;99.90
11474;DHT22;5793;52.238;13.438;2023-01-06T15:44:22;9.30;99.90
11474;DHT22;5793;52.238;13.438;2023-01-06T15:46:54;9.40;99.90
11474;DHT22;5793;52.238;13.438;2023-01-06T15:49:28;9.40;99.90
11474;DHT22;5793;52.238;13.438;2023-01-06T15:52:01;9.40;99.90
11474;DHT22;5793;52.238;13.438;2023-01-06T15:54:30;9.30;99.90
11474;DHT22;5793;52.238;13.438;2023-01-06T15:57:01;9.30;99.90
11474;DHT22;5793;52.238;13.438;2023-01-06T15:59:54;9.30;99.90
11474;DHT22;5793;52.238;13.438;2023-01-06T16:02:25;9.30;99.90
11474;DHT22;5793;52.238;13.438;2023-01-06T16:04:55;9.30;99.90
11474;DHT22;5793;52.238;13.438;2023-01-06T16:07:38;9.30;99.90
11474;DHT22;5793;52.238;13.438;2023-01-06T16:10:33;9.20;99.90
11474;DHT22;5793;52.238;13.438;2023-01-06T16:13:14;9.10;99.90
11474;DHT22;5793;52.238;13.438;2023-01-06T16:15:45;9.10;99.90
11474;DHT22;5793;52.238;13.438;2023-01-06T16:18:14;9.10;99.90